Time;durP1;ratioP1;P1;durP2;ratioP2;P2;SDS_P1;SDS_P2;PMS_P1;PMS_P2;Temp;Humidity;BMP_temperature;BMP_pressure;BME280_temperature;BME280_humidity;BME280_pressure;Samples;Min_cycle;Max_cycle;Signal;HPM_P1;HPM_P2
2022/09/10 00:01:34;;;;;;;;;0.50;0.00;;;;;19.41;56.34;99397.59;4982244;28;45501;-62
2022/09/10 00:04:01;;;;;;;;;1.00;1.00;;;;;19.39;56.63;99399.53;4999479;28;45633;-63
2022/09/10 00:06:28;;;;;;;;;0.20;0.00;;;;;19.33;56.96;99407.97;4999447;28;45413;-62
2022/09/10 00:08:58;;;;;;;;;0.00;0.00;;;;;19.31;57.48;99409.06;4999902;28;45429;-63
2022/09/10 00:11:25;;;;;;;;;0.00;0.00;;;;;19.25;57.72;99405.00;4997348;28;45513;-62
2022/09/10 00:13:51;;;;;;;;;0.40;0.40;;;;;19.19;57.50;99405.44;4996260;28;46286;-62
2022/09/10 00:16:18;;;;;;;;;0.00;0.00;;;;;19.15;57.21;99390.56;4996402;28;45459;-62
2022/09/10 00:18:45;;;;;;;;;0.80;0.00;;;;;19.12;56.89;99394.31;4993396;28;45354;-62
2022/09/10 00:21:13;;;;;;;;;0.75;0.00;;;;;19.09;57.88;99401.72;4976690;28;45382;-62
2022/09/10 00:23:39;;;;;;;;;1.00;1.00;;;;;19.03;58.04;99403.00;4976728;28;46583;-62
2022/09/10 00:26:12;;;;;;;;;1.00;1.00;;;;;19.01;57.50;99404.06;4983080;28;45528;-62
2022/09/10 00:28:37;;;;;;;;;0.80;0.00;;;;;19.01;58.06;99402.25;4996735;28;45401;-68
2022/09/10 00:31:03;;;;;;;;;0.75;0.75;;;;;19.01;58.66;99402.25;4993345;28;45339;-63
2022/09/10 00:33:28;;;;;;;;;1.00;1.00;;;;;19.03;58.05;99392.31;4995311;28;46294;-63
2022/09/10 00:35:56;;;;;;;;;2.00;2.00;;;;;19.06;58.04;99396.59;4995851;28;45370;-63
2022/09/10 00:38:22;;;;;;;;;5.00;1.00;;;;;19.06;58.31;99396.59;4995402;28;45446;-63
2022/09/10 00:40:48;;;;;;;;;1.00;0.00;;;;;19.09;58.06;99402.56;4985393;28;45395;-62
2022/09/10 00:43:19;;;;;;;;;2.00;1.00;;;;;19.13;58.22;99397.84;4975004;28;46252;-62
2022/09/10 00:45:48;;;;;;;;;1.00;1.00;;;;;19.15;58.11;99393.25;4990235;28;45378;-62
2022/09/10 00:48:18;;;;;;;;;3.40;1.80;;;;;19.18;58.19;99393.88;4989942;28;45469;-62
2022/09/10 00:50:46;;;;;;;;;1.00;1.00;;;;;19.21;58.19;99389.28;4996157;28;45355;-62
2022/09/10 00:53:16;;;;;;;;;1.00;0.80;;;;;19.24;58.01;99389.09;4995524;28;45590;-63
2022/09/10 00:55:45;;;;;;;;;1.00;1.00;;;;;19.26;58.21;99381.81;4993560;28;45450;-62
2022/09/10 00:58:13;;;;;;;;;1.00;1.00;;;;;19.28;58.05;99383.38;4995908;28;45533;-62
2022/09/10 01:00:40;;;;;;;;;0.00;0.00;;;;;19.29;58.36;99386.91;4994683;28;45430;-62
2022/09/10 01:03:10;;;;;;;;;1.00;1.00;;;;;19.30;58.59;99386.81;4984570;28;45478;-62
2022/09/10 01:05:37;;;;;;;;;3.20;1.60;;;;;19.32;58.49;99381.34;4990572;28;45382;-62
2022/09/10 01:08:03;;;;;;;;;0.60;0.40;;;;;19.33;58.69;99377.72;4994649;28;45428;-62
2022/09/10 01:10:36;;;;;;;;;2.00;1.00;;;;;19.33;59.09;99381.25;4996061;28;45393;-62
2022/09/10 01:13:10;;;;;;;;;1.20;1.20;;;;;19.32;58.78;99381.34;4995917;28;46052;-62
2022/09/10 01:15:36;;;;;;;;;1.00;1.00;;;;;19.26;59.87;99387.16;4995893;28;45421;-62
2022/09/10 01:18:07;;;;;;;;;1.00;1.00;;;;;19.18;59.55;99391.22;4995419;28;45334;-62
2022/09/10 01:20:45;;;;;;;;;4.00;1.50;;;;;19.06;59.21;99386.75;4995819;28;45528;-62
2022/09/10 01:23:30;;;;;;;;;1.00;1.00;;;;;18.96;59.49;99390.16;4995420;28;45560;-61
2022/09/10 01:26:25;;;;;;;;;1.20;1.20;;;;;18.86;59.51;99386.44;4995387;28;45510;-61
2022/09/10 01:29:20;;;;;;;;;1.20;1.00;;;;;18.80;59.23;99382.34;4986817;28;45428;-62
2022/09/10 01:31:58;;;;;;;;;1.00;1.00;;;;;18.76;59.54;99380.88;4987954;28;45434;-62
2022/09/10 01:34:31;;;;;;;;;0.80;0.80;;;;;18.72;59.30;99384.72;4995773;28;46834;-62
2022/09/10 01:37:05;;;;;;;;;0.00;0.00;;;;;18.69;59.59;99385.78;4995165;28;45330;-62
2022/09/10 01:39:31;;;;;;;;;0.60;0.60;;;;;18.68;59.87;99384.06;4995298;28;45461;-63
2022/09/10 01:41:57;;;;;;;;;1.00;1.00;;;;;18.63;59.71;99386.19;4993439;28;45453;-63
2022/09/10 01:44:46;;;;;;;;;1.00;1.00;;;;;18.56;59.67;99386.72;4994983;28;46339;-63
2022/09/10 01:47:17;;;;;;;;;0.00;0.00;;;;;18.46;59.23;99381.97;4988387;28;45331;-63
2022/09/10 01:50:06;;;;;;;;;0.80;0.00;;;;;18.39;59.90;99379.84;4988731;28;45505;-62
2022/09/10 01:52:58;;;;;;;;;0.25;0.25;;;;;18.31;60.61;99383.03;4984818;28;45443;-62
2022/09/10 01:55:47;;;;;;;;;1.00;1.00;;;;;18.26;61.06;99384.31;4994983;28;45461;-63
2022/09/10 01:58:22;;;;;;;;;1.00;1.00;;;;;18.24;60.93;99383.56;4995061;28;45360;-62
2022/09/10 02:01:12;;;;;;;;;2.00;1.00;;;;;18.25;60.80;99374.59;4993763;28;45364;-62
2022/09/10 02:03:40;;;;;;;;;1.00;1.00;;;;;18.27;61.33;99378.00;4994903;28;45402;-62
2022/09/10 02:06:11;;;;;;;;;1.00;1.00;;;;;18.26;62.21;99370.97;4995177;28;45627;-63
2022/09/10 02:08:40;;;;;;;;;1.80;1.60;;;;;18.27;62.45;99373.50;4995197;28;45383;-63
2022/09/10 02:11:10;;;;;;;;;1.40;1.00;;;;;18.27;62.42;99376.19;4994888;28;45395;-63
2022/09/10 02:13:36;;;;;;;;;1.00;1.00;;;;;18.30;62.46;99378.66;4994835;28;45495;-63
2022/09/10 02:16:07;;;;;;;;;0.40;0.40;;;;;18.32;62.54;99373.19;4994615;28;45434;-62
2022/09/10 02:18:33;;;;;;;;;1.00;1.00;;;;;18.35;61.46;99381.88;4994691;28;45338;-63
2022/09/10 02:21:01;;;;;;;;;1.00;1.00;;;;;18.37;60.93;99379.94;4994650;28;45381;-62
2022/09/10 02:23:36;;;;;;;;;1.00;1.00;;;;;18.41;61.44;99377.94;4994707;28;45506;-62
2022/09/10 02:26:01;;;;;;;;;1.20;0.20;;;;;18.44;61.60;99373.22;4994554;28;46107;-63
2022/09/10 02:28:27;;;;;;;;;0.00;0.00;;;;;18.47;61.39;99367.66;4994687;28;45474;-63
2022/09/10 02:30:53;;;;;;;;;1.00;1.00;;;;;18.52;61.28;99374.53;4994358;28;45537;-63
2022/09/10 02:33:19;;;;;;;;;1.20;1.20;;;;;18.56;61.63;99373.34;4992965;28;45446;-63
2022/09/10 02:35:46;;;;;;;;;1.75;1.00;;;;;18.58;61.37;99368.78;4993911;28;46111;-63
2022/09/10 02:38:12;;;;;;;;;1.00;1.00;;;;;18.58;61.58;99371.44;4994806;28;45298;-63
2022/09/10 02:40:38;;;;;;;;;1.00;1.00;;;;;18.56;61.46;99362.69;4994559;28;45378;-63
2022/09/10 02:43:03;;;;;;;;;1.00;1.00;;;;;18.48;61.43;99361.38;4994591;28;45498;-63
2022/09/10 02:45:33;;;;;;;;;0.25;0.25;;;;;18.42;60.91;99359.16;4994549;28;45855;-63
2022/09/10 02:47:59;;;;;;;;;1.00;0.20;;;;;18.40;60.85;99355.72;4988246;28;45497;-62
2022/09/10 02:50:24;;;;;;;;;0.50;0.50;;;;;18.39;60.96;99351.34;4994728;28;45543;-62
2022/09/10 02:52:50;;;;;;;;;1.00;1.00;;;;;18.40;61.90;99360.22;4994354;28;45331;-64
2022/09/10 02:55:16;;;;;;;;;1.25;1.00;;;;;18.41;62.10;99360.09;4993934;28;45560;-64
2022/09/10 02:57:42;;;;;;;;;1.80;1.80;;;;;18.42;61.96;99361.81;4993274;28;45386;-62
2022/09/10 03:00:09;;;;;;;;;1.00;1.00;;;;;18.42;61.97;99358.28;4994462;28;45362;-63
2022/09/10 03:02:35;;;;;;;;;1.60;1.00;;;;;18.40;62.23;99360.22;4993877;28;45379;-63
2022/09/10 03:05:03;;;;;;;;;1.75;1.00;;;;;18.32;61.89;99359.84;4993967;28;45676;-62
2022/09/10 03:07:29;;;;;;;;;2.60;1.80;;;;;18.24;61.97;99359.53;4994358;28;45461;-62
2022/09/10 03:09:55;;;;;;;;;0.40;0.00;;;;;18.21;62.27;99349.91;4994552;28;45381;-62
2022/09/10 03:12:20;;;;;;;;;0.00;0.00;;;;;18.19;62.49;99349.16;4994475;28;45371;-62
2022/09/10 03:14:46;;;;;;;;;2.00;0.75;;;;;18.16;62.16;99354.69;4994292;28;45556;-65
2022/09/10 03:17:11;;;;;;;;;2.00;2.00;;;;;18.10;62.36;99358.63;4993619;28;45481;-64
2022/09/10 03:19:38;;;;;;;;;3.00;1.00;;;;;18.06;62.42;99357.16;4993965;28;45464;-64
2022/09/10 03:22:05;;;;;;;;;1.00;1.00;;;;;18.04;62.63;99356.41;4993856;28;45515;-64
2022/09/10 03:24:30;;;;;;;;;1.00;1.00;;;;;18.03;62.58;99357.34;4993795;28;46418;-63
2022/09/10 03:26:56;;;;;;;;;2.00;2.00;;;;;18.04;62.80;99355.53;4992855;28;45360;-63
2022/09/10 03:29:25;;;;;;;;;2.00;2.00;;;;;18.07;62.86;99350.84;4994146;28;45502;-63
2022/09/10 03:31:50;;;;;;;;;1.25;1.00;;;;;18.10;62.66;99349.78;4993399;28;45378;-63
2022/09/10 03:34:17;;;;;;;;;1.50;0.25;;;;;18.15;62.68;99355.66;4993918;28;46534;-63
2022/09/10 03:36:43;;;;;;;;;1.60;1.00;;;;;18.19;62.96;99354.50;4993719;28;45388;-63
2022/09/10 03:39:08;;;;;;;;;1.75;1.75;;;;;18.23;63.38;99363.16;4993378;28;45422;-63
2022/09/10 03:41:34;;;;;;;;;2.50;1.25;;;;;18.25;62.95;99355.91;4993859;28;45307;-63
2022/09/10 03:43:59;;;;;;;;;2.75;1.00;;;;;18.27;63.13;99357.50;4993545;28;46389;-63
2022/09/10 03:46:25;;;;;;;;;1.00;1.00;;;;;18.32;63.01;99365.19;4993922;28;45430;-61
2022/09/10 03:48:51;;;;;;;;;1.25;1.25;;;;;18.35;62.34;99357.84;4991713;28;45427;-61
2022/09/10 03:51:17;;;;;;;;;2.00;2.00;;;;;18.38;62.95;99360.31;4996918;28;45485;-61
2022/09/10 03:53:42;;;;;;;;;3.75;2.25;;;;;18.39;62.87;99361.16;4996702;28;45515;-61
2022/09/10 03:56:09;;;;;;;;;3.25;2.00;;;;;18.41;62.66;99364.59;4996995;28;45433;-61
2022/09/10 03:58:35;;;;;;;;;2.00;2.00;;;;;18.43;62.23;99371.50;4997311;28;45360;-61
2022/09/10 04:01:01;;;;;;;;;3.00;1.75;;;;;18.44;61.72;99362.53;4996924;28;45636;-61
2022/09/10 04:03:28;;;;;;;;;2.00;2.00;;;;;18.47;61.64;99370.34;4996890;28;45569;-61
2022/09/10 04:05:54;;;;;;;;;1.40;1.40;;;;;18.48;61.49;99374.72;4997280;28;45460;-61
2022/09/10 04:08:20;;;;;;;;;2.00;1.00;;;;;18.48;61.67;99371.19;4997159;28;45495;-61
2022/09/10 04:10:46;;;;;;;;;1.00;1.00;;;;;18.46;61.68;99373.97;4996918;28;45613;-62
2022/09/10 04:13:11;;;;;;;;;3.50;2.00;;;;;18.45;61.60;99374.06;4996793;28;46723;-61
2022/09/10 04:15:37;;;;;;;;;1.00;1.00;;;;;18.43;61.41;99374.19;4997018;28;45421;-61
2022/09/10 04:18:04;;;;;;;;;2.00;1.50;;;;;18.43;61.29;99370.69;4995170;28;45485;-61
2022/09/10 04:20:30;;;;;;;;;2.25;1.50;;;;;18.42;61.01;99372.50;4996832;28;45532;-61
2022/09/10 04:22:55;;;;;;;;;3.00;1.25;;;;;18.41;61.15;99372.59;4996615;28;46195;-61
2022/09/10 04:25:21;;;;;;;;;2.00;2.00;;;;;18.39;61.20;99375.38;4994704;28;45473;-61
2022/09/10 04:27:47;;;;;;;;;2.00;2.00;;;;;18.38;61.17;99373.66;4996743;28;45374;-61
2022/09/10 04:30:13;;;;;;;;;1.00;1.00;;;;;18.36;61.11;99369.38;4996602;28;45321;-61
2022/09/10 04:32:39;;;;;;;;;1.75;1.75;;;;;18.32;60.94;99376.72;4995545;28;45428;-61
2022/09/10 04:35:05;;;;;;;;;1.75;1.75;;;;;18.32;61.03;99379.41;4996337;28;45599;-61
2022/09/10 04:37:31;;;;;;;;;2.40;1.00;;;;;18.33;61.44;99375.78;4996444;28;45426;-62
2022/09/10 04:39:56;;;;;;;;;1.00;1.00;;;;;18.33;62.18;99380.25;4996499;28;45410;-62
2022/09/10 04:42:23;;;;;;;;;2.20;2.20;;;;;18.26;61.72;99385.16;4976744;28;47574;-61
2022/09/10 04:44:49;;;;;;;;;2.00;1.00;;;;;18.20;61.61;99388.25;4976754;28;45389;-62
2022/09/10 04:47:15;;;;;;;;;2.75;2.00;;;;;18.16;61.38;99392.06;4989949;28;45489;-62
2022/09/10 04:49:42;;;;;;;;;2.50;1.25;;;;;18.14;61.63;99389.50;4996284;28;45347;-62
2022/09/10 04:52:08;;;;;;;;;3.00;2.00;;;;;18.14;61.33;99391.31;4996358;28;46565;-62
2022/09/10 04:54:35;;;;;;;;;2.20;1.60;;;;;18.12;61.83;99391.41;4996415;28;45325;-63
2022/09/10 04:57:00;;;;;;;;;2.00;2.00;;;;;18.07;61.49;99385.53;4994632;28;45443;-61
2022/09/10 04:59:26;;;;;;;;;0.00;0.00;;;;;18.02;61.82;99393.00;4996284;28;45433;-61
2022/09/10 05:01:52;;;;;;;;;4.50;2.75;;;;;17.98;61.93;99387.94;4995635;28;45485;-61
2022/09/10 05:04:18;;;;;;;;;1.00;1.00;;;;;17.94;62.13;99397.97;4996056;28;45418;-61
2022/09/10 05:06:43;;;;;;;;;1.00;1.00;;;;;17.91;62.52;99405.34;4995986;28;45401;-61
2022/09/10 05:09:10;;;;;;;;;3.00;1.50;;;;;17.88;62.56;99400.19;4995643;28;45565;-61
2022/09/10 05:11:36;;;;;;;;;2.00;2.00;;;;;17.86;62.76;99402.97;4995391;28;45405;-61
2022/09/10 05:14:01;;;;;;;;;1.50;1.50;;;;;17.84;63.30;99402.19;4995996;28;45362;-61
2022/09/10 05:16:27;;;;;;;;;2.75;2.00;;;;;17.78;63.73;99398.09;4995443;28;45391;-61
2022/09/10 05:18:52;;;;;;;;;2.00;2.00;;;;;17.71;63.91;99398.63;4996014;28;45431;-62
2022/09/10 05:21:18;;;;;;;;;3.00;1.00;;;;;17.64;64.14;99394.63;4995583;28;45538;-62
2022/09/10 05:23:43;;;;;;;;;2.00;1.25;;;;;17.61;64.34;99408.97;4995382;28;45525;-62
2022/09/10 05:26:09;;;;;;;;;2.75;2.00;;;;;17.60;64.73;99407.25;4995086;28;45493;-62
2022/09/10 05:28:35;;;;;;;;;3.00;3.00;;;;;17.59;65.12;99410.91;4994473;28;45371;-62
2022/09/10 05:31:00;;;;;;;;;2.00;2.00;;;;;17.58;65.20;99409.19;4995211;28;46352;-61
2022/09/10 05:33:26;;;;;;;;;1.50;1.50;;;;;17.57;65.19;99407.47;4995096;28;45415;-63
2022/09/10 05:35:51;;;;;;;;;3.50;2.00;;;;;17.58;65.01;99411.00;4994947;28;45463;-62
2022/09/10 05:38:17;;;;;;;;;2.25;1.25;;;;;17.57;64.83;99418.16;4994868;28;45542;-64
2022/09/10 05:40:42;;;;;;;;;3.00;1.50;;;;;17.56;64.94;99407.59;4986978;28;45490;-63
2022/09/10 05:43:09;;;;;;;;;1.00;1.00;;;;;17.53;65.17;99410.44;4984473;28;45488;-63
2022/09/10 05:45:34;;;;;;;;;1.00;1.00;;;;;17.49;65.72;99417.75;4987416;28;45513;-62
2022/09/10 05:48:00;;;;;;;;;2.50;1.50;;;;;17.45;66.13;99416.25;4983212;28;45544;-62
2022/09/10 05:50:25;;;;;;;;;2.00;2.00;;;;;17.44;65.52;99417.19;4990187;28;45432;-62
2022/09/10 05:52:51;;;;;;;;;2.75;2.00;;;;;17.44;65.39;99425.19;4985914;28;45441;-64
2022/09/10 05:55:16;;;;;;;;;4.00;2.25;;;;;17.43;65.50;99424.34;4988113;28;45487;-64
2022/09/10 05:57:42;;;;;;;;;1.75;1.00;;;;;17.47;65.79;99418.81;4982032;28;45300;-64
2022/09/10 06:00:08;;;;;;;;;3.00;3.00;;;;;17.48;65.75;99409.88;4981225;28;45905;-63
2022/09/10 06:02:34;;;;;;;;;2.00;2.00;;;;;17.47;65.70;99419.66;4989863;28;45404;-61
2022/09/10 06:04:59;;;;;;;;;2.25;2.25;;;;;17.48;65.48;99424.06;4991121;28;45491;-61
2022/09/10 06:07:30;;;;;;;;;2.00;2.00;;;;;17.51;65.12;99428.34;4989424;28;45442;-63
2022/09/10 06:09:56;;;;;;;;;1.25;1.00;;;;;17.60;65.02;99436.59;4983203;28;46070;-62
2022/09/10 06:12:22;;;;;;;;;3.00;2.00;;;;;17.66;64.57;99438.91;4983739;28;45502;-63
2022/09/10 06:14:51;;;;;;;;;3.25;2.00;;;;;17.71;64.43;99431.47;4988271;28;45523;-63
2022/09/10 06:17:17;;;;;;;;;3.50;2.75;;;;;17.76;64.03;99424.03;4988080;28;45467;-63
2022/09/10 06:19:44;;;;;;;;;2.60;2.00;;;;;17.78;63.44;99430.09;4984158;28;46413;-63
2022/09/10 06:22:10;;;;;;;;;3.00;2.00;;;;;17.79;63.70;99431.81;4981080;28;45605;-62
2022/09/10 06:24:36;;;;;;;;;2.75;2.75;;;;;17.81;63.96;99436.22;4988306;28;45551;-63
2022/09/10 06:27:02;;;;;;;;;1.75;1.75;;;;;17.84;63.83;99436.88;4983100;28;45536;-62
2022/09/10 06:29:28;;;;;;;;;2.00;2.00;;;;;17.88;63.76;99430.38;4985596;28;46100;-67
2022/09/10 06:31:54;;;;;;;;;4.00;2.20;;;;;17.93;63.33;99440.78;4981288;28;45537;-66
2022/09/10 06:34:19;;;;;;;;;2.00;1.50;;;;;17.93;63.58;99444.25;4974850;28;45707;-63
2022/09/10 06:36:50;;;;;;;;;2.25;1.00;;;;;18.00;63.71;99439.41;4985618;28;45566;-65
2022/09/10 06:39:16;;;;;;;;;2.00;2.00;;;;;18.13;63.84;99437.63;4986198;28;45573;-67
2022/09/10 06:41:42;;;;;;;;;6.50;4.75;;;;;18.22;63.30;99447.72;4988793;28;45426;-65
2022/09/10 06:44:08;;;;;;;;;3.75;3.50;;;;;18.24;63.06;99450.28;4976269;28;45479;-65
2022/09/10 06:46:34;;;;;;;;;3.50;3.00;;;;;18.24;63.12;99445.81;4986611;28;45476;-66
2022/09/10 06:49:02;;;;;;;;;4.75;2.75;;;;;18.27;63.12;99458.91;4990195;28;45407;-64
2022/09/10 06:51:28;;;;;;;;;3.60;2.80;;;;;18.35;63.24;99456.59;4995184;28;45404;-65
2022/09/10 06:53:54;;;;;;;;;3.50;3.00;;;;;18.41;62.83;99460.69;4994343;28;45443;-65
2022/09/10 06:56:19;;;;;;;;;3.00;3.00;;;;;18.41;62.94;99450.88;4993994;28;45590;-65
2022/09/10 06:58:45;;;;;;;;;2.50;2.00;;;;;18.41;62.83;99458.88;4993574;28;45655;-67
2022/09/10 07:01:14;;;;;;;;;2.25;2.25;;;;;18.42;62.87;99457.94;4974601;28;45481;-67
2022/09/10 07:03:41;;;;;;;;;4.60;3.60;;;;;18.45;62.86;99463.03;4974040;28;45359;-61
2022/09/10 07:06:10;;;;;;;;;2.25;2.25;;;;;18.53;62.58;99459.88;4973758;28;45414;-61
2022/09/10 07:08:36;;;;;;;;;3.00;3.00;;;;;18.61;62.37;99457.56;4973957;28;45465;-61
2022/09/10 07:11:04;;;;;;;;;3.20;3.20;;;;;18.69;62.24;99463.25;4974005;28;45354;-62
2022/09/10 07:13:33;;;;;;;;;4.60;4.00;;;;;18.74;61.93;99455.78;4972549;28;45396;-62
2022/09/10 07:16:00;;;;;;;;;4.75;3.00;;;;;18.80;61.89;99462.50;4984704;28;45367;-63
2022/09/10 07:18:27;;;;;;;;;5.00;3.25;;;;;18.87;61.80;99463.81;4988585;28;45357;-68
2022/09/10 07:20:53;;;;;;;;;4.00;4.00;;;;;18.96;62.01;99460.47;4994306;28;45447;-70
2022/09/10 07:23:21;;;;;;;;;3.25;3.25;;;;;19.07;61.56;99465.97;4996049;28;45469;-61
2022/09/10 07:25:47;;;;;;;;;2.00;2.00;;;;;19.14;62.03;99472.56;4996609;28;45473;-63
2022/09/10 07:28:17;;;;;;;;;3.00;2.00;;;;;19.22;61.58;99473.88;4996210;28;46157;-63
2022/09/10 07:30:43;;;;;;;;;3.20;3.00;;;;;19.28;60.69;99468.94;4995145;28;45402;-63
2022/09/10 07:33:12;;;;;;;;;8.00;5.00;;;;;19.33;61.33;99472.16;4995948;28;45453;-63
2022/09/10 07:35:38;;;;;;;;;2.00;2.00;;;;;19.40;61.12;99472.59;4996756;28;45565;-63
2022/09/10 07:38:05;;;;;;;;;5.00;3.40;;;;;19.44;60.80;99474.91;4996492;28;45570;-63
2022/09/10 07:40:32;;;;;;;;;1.00;1.00;;;;;19.48;60.43;99471.06;4988569;28;45486;-63
2022/09/10 07:42:58;;;;;;;;;4.20;4.20;;;;;19.56;60.45;99475.06;4992983;28;45382;-64
2022/09/10 07:45:25;;;;;;;;;354.50;275.50;;;;;19.68;60.73;99467.00;4994996;28;45398;-64
2022/09/10 07:47:51;;;;;;;;;4.50;4.50;;;;;19.80;60.45;99470.59;4988472;28;45677;-65
2022/09/10 07:50:17;;;;;;;;;2.00;2.00;;;;;19.84;59.74;99480.97;4993366;28;45480;-65
2022/09/10 07:52:43;;;;;;;;;1.00;1.00;;;;;19.84;59.97;99472.94;4994783;28;45469;-63
2022/09/10 07:55:09;;;;;;;;;3.00;3.00;;;;;19.84;60.05;99478.31;4982544;28;45521;-61
2022/09/10 07:57:36;;;;;;;;;5.00;4.00;;;;;19.86;60.05;99475.53;4984343;28;46087;-63
2022/09/10 08:00:05;;;;;;;;;4.00;2.80;;;;;19.88;60.12;99476.25;4993260;28;45350;-63
2022/09/10 08:02:30;;;;;;;;;4.00;3.40;;;;;19.89;59.41;99469.09;4995298;28;45367;-64
2022/09/10 08:04:55;;;;;;;;;3.00;3.00;;;;;19.93;59.78;99475.94;4994545;28;45562;-64
2022/09/10 08:07:21;;;;;;;;;4.25;3.00;;;;;19.92;59.57;99471.56;4995383;28;45347;-64
2022/09/10 08:09:47;;;;;;;;;3.00;2.00;;;;;19.92;59.97;99477.75;4995474;28;45431;-62
2022/09/10 08:12:12;;;;;;;;;3.00;3.00;;;;;19.96;60.05;99473.88;4995902;28;45415;-63
2022/09/10 08:14:38;;;;;;;;;1.50;1.50;;;;;20.02;59.30;99472.56;4994954;28;45444;-63
2022/09/10 08:17:04;;;;;;;;;3.75;3.25;;;;;20.04;59.50;99467.97;4989508;28;46752;-63
2022/09/10 08:19:29;;;;;;;;;4.00;3.00;;;;;20.08;59.59;99467.66;4975662;28;45485;-64
2022/09/10 08:21:55;;;;;;;;;3.25;3.25;;;;;20.14;59.62;99474.34;4975027;28;45432;-62
2022/09/10 08:24:21;;;;;;;;;4.00;3.25;;;;;20.24;59.86;99474.53;4975927;28;45538;-62
2022/09/10 08:26:46;;;;;;;;;2.00;2.00;;;;;20.31;59.73;99478.44;4987199;28;45540;-61
2022/09/10 08:29:12;;;;;;;;;2.00;2.00;;;;;20.36;59.13;99477.19;4993228;28;46325;-62
2022/09/10 08:31:38;;;;;;;;;3.75;3.75;;;;;20.40;58.67;99476.00;4995121;28;45520;-61
2022/09/10 08:34:04;;;;;;;;;4.75;2.00;;;;;20.40;58.83;99481.34;4993434;28;45537;-62
2022/09/10 08:36:29;;;;;;;;;1.20;1.20;;;;;20.43;58.71;99474.91;4994383;28;47329;-62
2022/09/10 08:38:55;;;;;;;;;1.75;1.75;;;;;20.44;58.75;99482.81;4995490;28;45331;-63
2022/09/10 08:41:38;;;;;;;;;1.50;1.50;;;;;20.43;58.26;99481.13;4995003;28;45401;-64
2022/09/10 08:44:10;;;;;;;;;3.00;2.20;;;;;20.35;57.95;99478.13;4994757;28;46282;-63
2022/09/10 08:46:48;;;;;;;;;5.20;4.40;;;;;20.33;58.48;99485.41;4993544;28;45998;-65
2022/09/10 08:49:30;;;;;;;;;3.00;3.00;;;;;20.33;58.58;99480.06;4991538;28;45383;-62
2022/09/10 08:52:02;;;;;;;;;3.80;2.00;;;;;20.34;57.95;99473.72;4993415;28;45391;-62
2022/09/10 08:54:36;;;;;;;;;2.00;2.00;;;;;20.35;57.99;99472.75;4994696;28;45453;-64
2022/09/10 08:57:05;;;;;;;;;3.20;2.00;;;;;20.36;57.84;99469.16;4983816;28;46197;-62
2022/09/10 08:59:41;;;;;;;;;2.00;2.00;;;;;20.35;57.91;99463.88;4992341;28;45523;-62
2022/09/10 09:02:26;;;;;;;;;3.00;3.00;;;;;20.30;57.98;99466.03;4994038;28;45370;-62
2022/09/10 09:05:19;;;;;;;;;3.40;3.40;;;;;20.22;58.14;99471.97;4971963;28;45354;-62
2022/09/10 09:07:47;;;;;;;;;2.60;2.60;;;;;20.20;58.32;99463.19;4986865;28;45583;-63
2022/09/10 09:10:24;;;;;;;;;2.20;2.00;;;;;20.20;58.12;99455.16;4981806;28;45477;-62
2022/09/10 09:13:25;;;;;;;;;2.00;2.00;;;;;20.22;58.63;99453.22;4994289;28;45558;-62
2022/09/10 09:16:15;;;;;;;;;2.00;2.00;;;;;20.28;58.12;99449.22;4994419;28;45302;-63
2022/09/10 09:19:13;;;;;;;;;2.80;2.00;;;;;20.37;57.74;99448.59;4977090;28;45516;-62
2022/09/10 09:21:52;;;;;;;;;1.00;1.00;;;;;20.44;57.68;99444.50;4991089;28;45488;-62
2022/09/10 09:24:57;;;;;;;;;2.00;1.20;;;;;20.49;56.78;99436.94;4991431;28;45300;-68
2022/09/10 09:27:28;;;;;;;;;2.20;1.60;;;;;20.62;55.53;99447.56;4991266;28;45475;-64
2022/09/10 09:30:17;;;;;;;;;1.60;1.60;;;;;20.66;54.86;99435.66;5000630;28;46410;-70
2022/09/10 09:32:46;;;;;;;;;0.00;0.00;;;;;20.70;54.60;99439.81;4991820;28;45455;-65
2022/09/10 09:35:36;;;;;;;;;1.60;0.60;;;;;20.69;53.76;99449.69;4993959;28;45470;-64
2022/09/10 09:38:07;;;;;;;;;0.00;0.00;;;;;20.70;53.16;99434.44;4994353;28;45445;-63
2022/09/10 09:40:40;;;;;;;;;0.80;0.80;;;;;20.72;53.02;99446.75;4993800;28;45542;-64
2022/09/10 09:43:14;;;;;;;;;0.40;0.40;;;;;20.75;52.61;99437.63;4993997;28;45334;-63
2022/09/10 09:45:42;;;;;;;;;1.20;1.20;;;;;20.75;52.07;99446.53;4992629;28;45429;-63
2022/09/10 09:48:12;;;;;;;;;2.00;1.00;;;;;20.79;51.93;99433.72;4987865;28;45545;-63
2022/09/10 09:50:40;;;;;;;;;0.20;0.20;;;;;20.81;50.35;99439.81;4993467;28;46279;-63
2022/09/10 09:53:08;;;;;;;;;1.00;1.00;;;;;20.84;49.73;99437.78;4983105;28;45455;-64
2022/09/10 09:55:46;;;;;;;;;0.20;0.20;;;;;20.89;47.48;99435.59;4975239;28;45428;-65
2022/09/10 09:58:22;;;;;;;;;1.00;1.00;;;;;20.93;49.53;99430.00;4974912;28;45273;-65
2022/09/10 10:00:52;;;;;;;;;1.00;0.00;;;;;20.96;47.02;99430.59;4974175;28;46464;-62
2022/09/10 10:03:29;;;;;;;;;0.00;0.00;;;;;21.02;48.21;99410.50;4992715;28;45466;-62
2022/09/10 10:06:07;;;;;;;;;0.00;0.00;;;;;21.08;47.92;99410.91;4993873;28;45446;-62
2022/09/10 10:08:39;;;;;;;;;0.40;0.40;;;;;21.07;47.44;99419.91;4991436;28;45426;-64
2022/09/10 10:11:06;;;;;;;;;0.40;0.40;;;;;21.09;47.50;99428.69;4993616;28;46392;-64
2022/09/10 10:13:41;;;;;;;;;0.40;0.00;;;;;21.10;46.37;99414.31;4993329;28;45432;-64
2022/09/10 10:16:21;;;;;;;;;1.80;0.00;;;;;21.15;47.05;99412.09;4988763;28;45476;-64
2022/09/10 10:18:48;;;;;;;;;1.00;1.00;;;;;21.21;46.77;99408.97;4988549;28;45525;-64
2022/09/10 10:21:18;;;;;;;;;0.00;0.00;;;;;21.27;45.84;99401.44;4988171;28;45449;-64
2022/09/10 10:23:45;;;;;;;;;0.00;0.00;;;;;21.31;45.75;99408.22;4993164;28;45371;-63
2022/09/10 10:26:19;;;;;;;;;0.00;0.00;;;;;21.33;45.24;99393.72;4978173;28;45486;-63
2022/09/10 10:29:25;;;;;;;;;1.00;0.00;;;;;21.36;45.27;99400.69;4988978;28;45550;-62
2022/09/10 10:31:52;;;;;;;;;0.00;0.00;;;;;21.40;45.11;99391.41;4983768;28;45536;-62
2022/09/10 10:34:44;;;;;;;;;2.20;2.00;;;;;21.41;44.26;99393.13;4992916;28;45529;-62
2022/09/10 10:37:26;;;;;;;;;0.00;0.00;;;;;21.42;43.73;99389.47;4990088;28;45428;-61
2022/09/10 10:40:06;;;;;;;;;1.40;0.00;;;;;21.49;43.88;99396.03;4982155;28;45466;-61
2022/09/10 10:42:44;;;;;;;;;0.80;0.20;;;;;21.53;43.33;99381.41;4981457;28;46364;-65
2022/09/10 10:45:36;;;;;;;;;0.00;0.00;;;;;21.58;43.29;99376.53;4977129;28;45316;-60
2022/09/10 10:48:16;;;;;;;;;0.00;0.00;;;;;21.58;43.18;99360.44;4982732;28;45492;-62
2022/09/10 10:51:34;;;;;;;;;0.40;0.00;;;;;21.65;43.21;99375.03;4974381;28;45426;-64
2022/09/10 10:54:17;;;;;;;;;0.00;0.00;;;;;21.71;42.62;99358.44;4965384;28;46569;-62
2022/09/10 10:57:01;;;;;;;;;0.00;0.00;;;;;21.75;42.05;99364.41;4992752;28;45481;-63
2022/09/10 10:59:30;;;;;;;;;0.00;0.00;;;;;21.76;40.26;99353.56;4993243;28;45432;-63
2022/09/10 11:02:17;;;;;;;;;0.00;0.00;;;;;21.76;41.11;99356.25;4992748;28;45451;-62
2022/09/10 11:04:52;;;;;;;;;0.00;0.00;;;;;21.81;41.41;99353.16;4989098;28;45747;-62
2022/09/10 11:07:22;;;;;;;;;0.00;0.00;;;;;21.88;41.51;99355.22;4992752;28;45356;-62
2022/09/10 11:10:02;;;;;;;;;0.00;0.00;;;;;21.99;41.97;99329.28;4993016;28;45550;-62
2022/09/10 11:12:43;;;;;;;;;0.00;0.00;;;;;22.05;42.92;99329.69;4992506;28;45489;-62
2022/09/10 11:15:28;;;;;;;;;0.00;0.00;;;;;22.11;42.54;99337.22;4976420;28;45494;-63
2022/09/10 11:18:05;;;;;;;;;0.00;0.00;;;;;22.13;41.58;99329.03;4984172;28;45415;-62
2022/09/10 11:20:38;;;;;;;;;0.00;0.00;;;;;22.19;42.24;99336.56;4983607;28;45347;-62
2022/09/10 11:23:19;;;;;;;;;0.00;0.00;;;;;22.19;42.32;99333.88;4975366;28;45623;-63
2022/09/10 11:26:12;;;;;;;;;1.00;0.00;;;;;22.20;42.55;99332.91;4976828;28;45639;-68
2022/09/10 11:28:55;;;;;;;;;0.00;0.00;;;;;22.24;40.84;99334.34;4994301;28;46314;-62
2022/09/10 11:31:40;;;;;;;;;0.00;0.00;;;;;22.27;40.55;99326.03;4983955;28;45494;-65
2022/09/10 11:34:19;;;;;;;;;0.00;0.00;;;;;22.27;40.27;99320.66;4981438;28;45529;-65
2022/09/10 11:37:02;;;;;;;;;0.20;0.00;;;;;22.28;40.86;99325.06;4982107;28;46202;-67
2022/09/10 11:39:37;;;;;;;;;0.00;0.00;;;;;22.35;41.35;99331.59;4984625;28;45464;-64
2022/09/10 11:42:12;;;;;;;;;1.00;1.00;;;;;22.44;40.61;99332.66;4971548;28;45516;-62
2022/09/10 11:44:56;;;;;;;;;0.00;0.00;;;;;22.47;40.92;99314.41;4988226;28;45469;-62
2022/09/10 11:47:37;;;;;;;;;0.00;0.00;;;;;22.50;41.92;99322.22;4986003;28;45790;-62
2022/09/10 11:50:09;;;;;;;;;0.40;0.40;;;;;22.56;40.68;99310.09;4991460;28;45377;-64